Time;durP1;ratioP1;P1;durP2;ratioP2;P2;SDS_P1;SDS_P2;PMS_P1;PMS_P2;Temp;Humidity;BMP_temperature;BMP_pressure;BME280_temperature;BME280_humidity;BME280_pressure;Samples;Min_cycle;Max_cycle;Signal;HPM_P1;HPM_P2
2022/03/02 00:00:40;;;;;;;46.88;30.13;;;;;;;;;;5107255;28;20040;-77
2022/03/02 00:03:06;;;;;;;44.05;29.48;;;;;;;;;;5090479;28;20052;-77
2022/03/02 00:05:33;;;;;;;42.15;29.15;;;;;;;;;;5107026;28;20059;-77
2022/03/02 00:07:59;;;;;;;46.65;30.80;;;;;;;;;;5104939;28;20082;-78
2022/03/02 00:10:25;;;;;;;45.58;29.40;;;;;;;;;;5104281;28;20055;-77
2022/03/02 00:12:52;;;;;;;45.33;29.73;;;;;;;;;;5089018;28;20051;-77
2022/03/02 00:15:18;;;;;;;44.97;29.63;;;;;;;;;;5105302;28;20043;-82
2022/03/02 00:17:45;;;;;;;46.95;29.77;;;;;;;;;;5107127;28;20070;-80
2022/03/02 00:20:12;;;;;;;48.40;30.25;;;;;;;;;;5106834;28;20106;-75
2022/03/02 00:22:38;;;;;;;45.58;29.65;;;;;;;;;;5105300;28;20035;-76
2022/03/02 00:25:08;;;;;;;48.15;29.48;;;;;;;;;;5072628;28;20127;-76
2022/03/02 00:27:34;;;;;;;45.42;30.17;;;;;;;;;;5107446;28;20055;-76
2022/03/02 00:30:01;;;;;;;46.42;29.45;;;;;;;;;;5103683;28;20052;-76
2022/03/02 00:32:27;;;;;;;47.75;30.42;;;;;;;;;;5100658;28;20117;-76
2022/03/02 00:34:53;;;;;;;45.95;28.88;;;;;;;;;;5089555;28;20036;-77
2022/03/02 00:37:19;;;;;;;48.90;31.40;;;;;;;;;;5106430;28;20059;-78
2022/03/02 00:39:45;;;;;;;47.22;30.15;;;;;;;;;;5104216;27;20205;-80
2022/03/02 00:42:11;;;;;;;45.75;29.60;;;;;;;;;;5105635;28;20060;-78
2022/03/02 00:44:37;;;;;;;47.58;30.27;;;;;;;;;;5096983;28;20044;-78
2022/03/02 00:47:04;;;;;;;47.28;29.98;;;;;;;;;;5094544;28;20047;-79
2022/03/02 00:49:31;;;;;;;41.67;28.23;;;;;;;;;;5095371;28;20055;-79
2022/03/02 00:51:58;;;;;;;45.08;30.08;;;;;;;;;;5099510;28;20116;-78
2022/03/02 00:54:24;;;;;;;46.58;28.90;;;;;;;;;;5115550;27;20059;-79
2022/03/02 00:56:50;;;;;;;41.85;29.02;;;;;;;;;;5106750;28;20055;-78
2022/03/02 00:59:16;;;;;;;48.42;29.15;;;;;;;;;;5105681;28;20509;-78
2022/03/02 01:01:43;;;;;;;46.75;28.45;;;;;;;;;;5103520;28;20054;-78
2022/03/02 01:04:09;;;;;;;44.55;28.80;;;;;;;;;;5107843;28;20070;-78
2022/03/02 01:06:35;;;;;;;50.08;31.25;;;;;;;;;;5090604;28;20048;-78
2022/03/02 01:09:02;;;;;;;50.65;30.98;;;;;;;;;;5106648;28;20040;-78
2022/03/02 01:11:28;;;;;;;56.17;32.90;;;;;;;;;;5090460;28;20036;-78
2022/03/02 01:13:54;;;;;;;50.53;32.20;;;;;;;;;;5102193;28;20379;-78
2022/03/02 01:16:20;;;;;;;50.10;30.55;;;;;;;;;;5107230;28;20062;-79
2022/03/02 01:18:47;;;;;;;48.35;31.40;;;;;;;;;;5107231;28;20486;-78
2022/03/02 01:21:13;;;;;;;50.80;31.40;;;;;;;;;;5089567;28;20192;-77
2022/03/02 01:23:39;;;;;;;45.83;30.52;;;;;;;;;;5084172;28;20032;-78
2022/03/02 01:26:05;;;;;;;49.67;31.88;;;;;;;;;;5103591;28;20048;-77
2022/03/02 01:28:31;;;;;;;47.67;29.90;;;;;;;;;;5089164;28;20410;-79
2022/03/02 01:30:57;;;;;;;45.58;29.95;;;;;;;;;;5107048;28;20053;-78
2022/03/02 01:33:23;;;;;;;49.38;31.60;;;;;;;;;;5110043;28;20036;-77
2022/03/02 01:35:49;;;;;;;48.38;30.73;;;;;;;;;;5108665;28;20036;-77
2022/03/02 01:38:15;;;;;;;46.58;30.30;;;;;;;;;;5091026;28;20051;-77
2022/03/02 01:40:41;;;;;;;51.53;30.40;;;;;;;;;;5109953;28;20054;-78
2022/03/02 01:43:08;;;;;;;49.63;31.17;;;;;;;;;;5109416;28;20040;-78
2022/03/02 01:45:34;;;;;;;51.97;32.08;;;;;;;;;;5107362;28;20083;-78
2022/03/02 01:48:01;;;;;;;51.50;31.63;;;;;;;;;;5109375;28;20067;-78
2022/03/02 01:50:27;;;;;;;49.65;32.17;;;;;;;;;;5105049;28;20043;-78
2022/03/02 01:52:54;;;;;;;49.15;31.90;;;;;;;;;;5128135;27;20039;-78
2022/03/02 01:55:20;;;;;;;56.92;32.55;;;;;;;;;;5111102;28;20066;-77
2022/03/02 01:57:46;;;;;;;51.65;32.03;;;;;;;;;;5093957;28;20032;-78
2022/03/02 02:00:13;;;;;;;53.47;31.40;;;;;;;;;;5109088;28;20063;-77
2022/03/02 02:02:40;;;;;;;50.75;32.25;;;;;;;;;;5098161;28;20048;-77
2022/03/02 02:05:06;;;;;;;49.88;31.02;;;;;;;;;;5109663;28;20051;-77
2022/03/02 02:07:33;;;;;;;51.28;32.17;;;;;;;;;;5111593;28;20059;-77
2022/03/02 02:09:59;;;;;;;50.33;31.60;;;;;;;;;;5110236;28;20567;-77
2022/03/02 02:12:25;;;;;;;50.90;32.22;;;;;;;;;;5109810;28;20035;-78
2022/03/02 02:14:51;;;;;;;54.45;32.10;;;;;;;;;;5106922;28;20036;-77
2022/03/02 02:17:17;;;;;;;49.42;31.52;;;;;;;;;;5108857;28;20031;-77
2022/03/02 02:19:43;;;;;;;49.45;32.00;;;;;;;;;;5109770;28;20118;-77
2022/03/02 02:22:09;;;;;;;50.15;31.95;;;;;;;;;;5118327;27;20107;-78
2022/03/02 02:24:35;;;;;;;54.47;31.70;;;;;;;;;;5092241;28;20047;-78
2022/03/02 02:27:02;;;;;;;53.45;32.90;;;;;;;;;;5107881;28;20535;-78
2022/03/02 02:29:30;;;;;;;50.17;32.78;;;;;;;;;;5109259;28;20044;-77
2022/03/02 02:31:57;;;;;;;51.72;32.33;;;;;;;;;;5110333;28;20035;-77
2022/03/02 02:34:23;;;;;;;54.83;32.92;;;;;;;;;;5108795;28;20397;-78
2022/03/02 02:36:50;;;;;;;52.63;33.38;;;;;;;;;;5108167;28;20073;-77
2022/03/02 02:39:16;;;;;;;58.63;33.72;;;;;;;;;;5092645;28;20398;-77
2022/03/02 02:41:42;;;;;;;52.78;32.60;;;;;;;;;;5108269;28;20472;-77
2022/03/02 02:44:08;;;;;;;53.33;33.17;;;;;;;;;;5107501;28;20127;-78
2022/03/02 02:46:34;;;;;;;52.53;33.25;;;;;;;;;;5109555;28;20035;-77
2022/03/02 02:49:00;;;;;;;54.97;33.55;;;;;;;;;;5107854;28;20054;-78
2022/03/02 02:51:26;;;;;;;57.80;35.72;;;;;;;;;;5109556;28;20123;-77
2022/03/02 02:53:52;;;;;;;55.25;33.60;;;;;;;;;;5105697;28;20371;-77
2022/03/02 02:56:18;;;;;;;63.45;34.42;;;;;;;;;;5107503;28;20075;-77
2022/03/02 02:58:44;;;;;;;56.78;35.85;;;;;;;;;;5092344;28;20496;-78
2022/03/02 03:01:10;;;;;;;57.47;35.75;;;;;;;;;;5106456;28;20482;-77
2022/03/02 03:03:36;;;;;;;62.70;37.35;;;;;;;;;;5073345;28;20089;-77
2022/03/02 03:06:04;;;;;;;63.58;37.17;;;;;;;;;;5109544;28;20092;-78
2022/03/02 03:08:30;;;;;;;60.10;36.08;;;;;;;;;;5107414;28;20059;-78
2022/03/02 03:10:56;;;;;;;63.80;36.42;;;;;;;;;;5105763;28;20031;-77
2022/03/02 03:13:22;;;;;;;59.78;37.15;;;;;;;;;;5107925;28;20048;-77
2022/03/02 03:15:48;;;;;;;66.05;38.28;;;;;;;;;;5109149;28;20547;-77
2022/03/02 03:18:14;;;;;;;66.90;38.72;;;;;;;;;;5091164;28;20482;-77
2022/03/02 03:20:40;;;;;;;64.35;38.33;;;;;;;;;;5091309;28;20036;-77
2022/03/02 03:23:07;;;;;;;62.97;38.53;;;;;;;;;;5086469;28;20117;-77
2022/03/02 03:25:33;;;;;;;72.05;38.45;;;;;;;;;;5114261;27;20047;-78
2022/03/02 03:27:59;;;;;;;69.75;39.15;;;;;;;;;;5096376;28;20040;-78
2022/03/02 03:30:26;;;;;;;64.75;38.20;;;;;;;;;;5100043;28;20454;-77
2022/03/02 03:32:52;;;;;;;67.00;38.53;;;;;;;;;;5105376;28;20059;-78
2022/03/02 03:35:19;;;;;;;68.93;39.30;;;;;;;;;;5108977;28;20506;-79
2022/03/02 03:37:45;;;;;;;68.07;38.38;;;;;;;;;;5107753;28;20119;-78
2022/03/02 03:40:13;;;;;;;70.55;40.65;;;;;;;;;;5106011;28;20044;-78
2022/03/02 03:42:39;;;;;;;76.95;40.70;;;;;;;;;;5108713;28;20055;-77
2022/03/02 03:45:06;;;;;;;69.45;40.13;;;;;;;;;;5105849;28;20078;-78
2022/03/02 03:47:32;;;;;;;72.68;40.72;;;;;;;;;;5092162;28;20469;-78
2022/03/02 03:49:58;;;;;;;70.15;37.92;;;;;;;;;;5105532;28;20043;-78
2022/03/02 03:52:25;;;;;;;69.65;40.95;;;;;;;;;;5106357;28;20263;-77
2022/03/02 03:54:51;;;;;;;70.68;39.75;;;;;;;;;;5090288;28;20443;-78
2022/03/02 03:57:17;;;;;;;75.43;41.17;;;;;;;;;;5105750;28;20044;-78
2022/03/02 03:59:43;;;;;;;73.13;40.85;;;;;;;;;;5109421;28;20057;-78
2022/03/02 04:02:09;;;;;;;74.75;42.47;;;;;;;;;;5106648;28;20138;-78
2022/03/02 04:04:35;;;;;;;73.35;40.78;;;;;;;;;;5092166;28;20108;-78
2022/03/02 04:07:01;;;;;;;73.70;40.30;;;;;;;;;;5106469;28;20419;-78
2022/03/02 04:09:27;;;;;;;73.45;40.80;;;;;;;;;;5104938;28;20039;-78
2022/03/02 04:11:53;;;;;;;78.03;42.60;;;;;;;;;;5090992;28;20047;-78
2022/03/02 04:14:20;;;;;;;74.35;41.55;;;;;;;;;;5104881;28;20126;-78
2022/03/02 04:16:46;;;;;;;75.90;41.85;;;;;;;;;;5107454;28;20039;-78
2022/03/02 04:19:12;;;;;;;76.88;43.03;;;;;;;;;;5106151;28;20199;-78
2022/03/02 04:21:38;;;;;;;71.80;41.58;;;;;;;;;;5098258;28;20145;-78
2022/03/02 04:24:04;;;;;;;74.22;43.03;;;;;;;;;;5088413;28;20469;-76
2022/03/02 04:26:30;;;;;;;71.63;39.83;;;;;;;;;;5105635;28;20051;-77
2022/03/02 04:28:56;;;;;;;71.75;40.40;;;;;;;;;;5108083;28;20042;-77
2022/03/02 04:31:22;;;;;;;73.35;41.15;;;;;;;;;;5107174;28;20382;-77
2022/03/02 04:33:49;;;;;;;73.53;41.08;;;;;;;;;;5102486;28;20040;-78
2022/03/02 04:36:15;;;;;;;68.30;40.25;;;;;;;;;;5106732;28;20099;-77
2022/03/02 04:38:41;;;;;;;72.85;41.47;;;;;;;;;;5090357;28;20051;-77
2022/03/02 04:41:07;;;;;;;73.18;42.65;;;;;;;;;;5089961;28;20142;-77
2022/03/02 04:43:33;;;;;;;75.20;42.08;;;;;;;;;;5089370;28;20130;-77
2022/03/02 04:45:59;;;;;;;72.88;41.72;;;;;;;;;;5104911;28;20142;-78
2022/03/02 04:48:25;;;;;;;75.15;41.83;;;;;;;;;;5107706;28;20572;-77
2022/03/02 04:50:51;;;;;;;76.15;42.50;;;;;;;;;;5089370;28;20500;-77
2022/03/02 04:53:18;;;;;;;79.93;43.53;;;;;;;;;;5105899;28;20348;-77
2022/03/02 04:55:44;;;;;;;74.25;41.75;;;;;;;;;;5087948;28;20066;-77
2022/03/02 04:58:11;;;;;;;70.25;41.63;;;;;;;;;;5106240;28;20051;-78
2022/03/02 05:00:37;;;;;;;79.25;41.40;;;;;;;;;;5107255;28;20051;-76
2022/03/02 05:03:05;;;;;;;69.90;40.20;;;;;;;;;;5104965;28;20484;-77
2022/03/02 05:05:32;;;;;;;74.70;41.60;;;;;;;;;;5089398;28;20133;-77
2022/03/02 05:07:58;;;;;;;76.47;41.78;;;;;;;;;;5088200;28;20530;-77
2022/03/02 05:10:25;;;;;;;70.03;42.20;;;;;;;;;;5090370;28;20047;-76
2022/03/02 05:12:51;;;;;;;75.60;42.20;;;;;;;;;;5102976;28;20169;-77
2022/03/02 05:15:19;;;;;;;73.00;41.33;;;;;;;;;;5106098;28;20055;-77
2022/03/02 05:17:45;;;;;;;73.72;41.03;;;;;;;;;;5106904;28;20065;-77
2022/03/02 05:20:12;;;;;;;73.35;39.75;;;;;;;;;;5090266;28;20048;-77
2022/03/02 05:22:38;;;;;;;72.57;41.08;;;;;;;;;;5107395;28;20043;-77
2022/03/02 05:25:05;;;;;;;72.03;42.30;;;;;;;;;;5104965;28;20082;-77
2022/03/02 05:27:31;;;;;;;75.13;40.95;;;;;;;;;;5089596;28;20039;-77
2022/03/02 05:29:57;;;;;;;74.05;41.28;;;;;;;;;;5090832;28;20059;-77
2022/03/02 05:32:23;;;;;;;73.57;41.03;;;;;;;;;;5104781;28;20458;-79
2022/03/02 05:34:50;;;;;;;78.75;43.88;;;;;;;;;;5080586;28;20040;-78
2022/03/02 05:37:16;;;;;;;74.93;43.95;;;;;;;;;;5105845;28;20124;-77
2022/03/02 05:39:42;;;;;;;80.22;45.03;;;;;;;;;;5106878;28;20480;-76
2022/03/02 05:42:08;;;;;;;77.40;42.63;;;;;;;;;;5098896;28;20097;-74
2022/03/02 05:44:35;;;;;;;79.32;44.97;;;;;;;;;;5113517;27;20364;-75
2022/03/02 05:47:01;;;;;;;78.40;44.08;;;;;;;;;;5077315;28;20225;-78
2022/03/02 05:49:27;;;;;;;81.25;44.63;;;;;;;;;;5098608;28;20067;-77
2022/03/02 05:51:53;;;;;;;79.53;43.40;;;;;;;;;;5095800;28;20058;-76
2022/03/02 05:54:19;;;;;;;77.72;41.75;;;;;;;;;;5064789;28;20443;-76
2022/03/02 05:56:45;;;;;;;74.57;42.83;;;;;;;;;;5093589;28;20058;-78
2022/03/02 05:59:12;;;;;;;73.18;42.97;;;;;;;;;;5075016;28;20052;-76
2022/03/02 06:01:39;;;;;;;76.30;44.80;;;;;;;;;;5091184;28;20048;-75
2022/03/02 06:04:06;;;;;;;75.38;43.30;;;;;;;;;;5080249;28;20047;-77
2022/03/02 06:06:32;;;;;;;72.78;42.10;;;;;;;;;;5099996;28;20138;-77
2022/03/02 06:08:59;;;;;;;76.13;42.75;;;;;;;;;;5100239;28;20104;-77
2022/03/02 06:11:25;;;;;;;69.15;40.38;;;;;;;;;;5095528;28;20087;-77
2022/03/02 06:13:52;;;;;;;70.70;40.42;;;;;;;;;;5097594;28;20040;-77
2022/03/02 06:16:18;;;;;;;77.50;41.80;;;;;;;;;;5098751;28;20142;-77
2022/03/02 06:18:44;;;;;;;77.20;43.22;;;;;;;;;;5095921;28;20046;-77
2022/03/02 06:21:15;;;;;;;73.38;41.00;;;;;;;;;;5091126;28;20439;-77
2022/03/02 06:23:41;;;;;;;69.35;41.08;;;;;;;;;;5104319;28;20117;-74
2022/03/02 06:26:07;;;;;;;72.53;40.35;;;;;;;;;;5103763;28;20055;-75
2022/03/02 06:28:33;;;;;;;79.93;42.55;;;;;;;;;;5098359;28;20097;-78
2022/03/02 06:30:59;;;;;;;79.50;40.78;;;;;;;;;;5095420;28;20044;-78
2022/03/02 06:33:26;;;;;;;69.53;40.58;;;;;;;;;;5096321;28;20048;-78
2022/03/02 06:35:52;;;;;;;74.32;41.80;;;;;;;;;;5089456;28;20072;-78
2022/03/02 06:38:19;;;;;;;69.88;39.70;;;;;;;;;;5095335;28;20059;-78
2022/03/02 06:41:04;;;;;;;75.05;41.75;;;;;;;;;;5101225;28;20123;-77
2022/03/02 06:43:35;;;;;;;72.20;40.90;;;;;;;;;;5088707;28;20047;-78
2022/03/02 06:46:10;;;;;;;73.47;41.28;;;;;;;;;;5100273;28;20135;-78
2022/03/02 06:48:47;;;;;;;74.18;40.42;;;;;;;;;;5092411;28;20047;-77
2022/03/02 06:51:15;;;;;;;77.50;42.67;;;;;;;;;;5101606;28;20123;-77
2022/03/02 06:53:44;;;;;;;70.80;40.75;;;;;;;;;;5096513;28;20335;-78
2022/03/02 06:56:10;;;;;;;72.50;41.85;;;;;;;;;;5088233;28;20055;-78
2022/03/02 06:58:41;;;;;;;69.60;42.40;;;;;;;;;;5096928;28;20478;-81
2022/03/02 07:01:09;;;;;;;72.65;41.28;;;;;;;;;;5110906;28;20042;-77
2022/03/02 07:03:41;;;;;;;74.35;41.03;;;;;;;;;;5097390;28;20076;-77
2022/03/02 07:06:07;;;;;;;72.05;40.63;;;;;;;;;;5110352;27;20043;-77
2022/03/02 07:08:34;;;;;;;71.43;41.42;;;;;;;;;;5093545;28;20153;-78
2022/03/02 07:11:00;;;;;;;71.95;42.03;;;;;;;;;;5106315;28;20042;-77
2022/03/02 07:13:27;;;;;;;62.63;36.88;;;;;;;;;;5109072;28;20048;-78
2022/03/02 07:15:53;;;;;;;60.85;37.55;;;;;;;;;;5094199;28;20423;-78
2022/03/02 07:18:20;;;;;;;59.28;36.30;;;;;;;;;;5104178;28;20039;-78
2022/03/02 07:20:47;;;;;;;57.88;36.80;;;;;;;;;;5093473;28;20461;-77
2022/03/02 07:23:15;;;;;;;62.22;36.67;;;;;;;;;;5094589;28;20072;-78
2022/03/02 07:25:42;;;;;;;60.47;35.10;;;;;;;;;;5078733;28;20089;-78
2022/03/02 07:28:11;;;;;;;54.88;34.10;;;;;;;;;;5091373;28;20386;-79
2022/03/02 07:30:37;;;;;;;59.10;35.75;;;;;;;;;;5083166;28;20048;-78
2022/03/02 07:33:04;;;;;;;56.22;35.05;;;;;;;;;;5098724;28;20845;-78
2022/03/02 07:35:35;;;;;;;55.60;33.83;;;;;;;;;;5091393;28;20048;-78
2022/03/02 07:38:01;;;;;;;55.45;34.00;;;;;;;;;;5094591;28;20134;-77
2022/03/02 07:40:28;;;;;;;59.35;34.45;;;;;;;;;;5108401;28;20126;-78
2022/03/02 07:42:54;;;;;;;53.78;33.72;;;;;;;;;;5105875;28;20043;-76
2022/03/02 07:45:20;;;;;;;54.60;33.75;;;;;;;;;;5109208;28;20188;-78
2022/03/02 07:47:47;;;;;;;57.20;34.63;;;;;;;;;;5093434;28;20285;-78
2022/03/02 07:50:13;;;;;;;54.10;34.00;;;;;;;;;;5102747;28;20048;-78
2022/03/02 07:52:46;;;;;;;52.08;34.13;;;;;;;;;;5092839;28;20479;-78
2022/03/02 07:55:12;;;;;;;55.35;33.83;;;;;;;;;;5099193;28;20047;-78
2022/03/02 07:57:39;;;;;;;55.58;35.22;;;;;;;;;;5103276;28;20048;-78
2022/03/02 08:00:06;;;;;;;51.72;33.97;;;;;;;;;;5087932;28;20044;-78
2022/03/02 08:02:33;;;;;;;49.67;32.00;;;;;;;;;;5104159;28;20130;-78
2022/03/02 08:04:59;;;;;;;48.22;31.85;;;;;;;;;;5099439;28;20054;-78
2022/03/02 08:07:25;;;;;;;48.47;32.85;;;;;;;;;;5103698;28;20102;-78
2022/03/02 08:09:52;;;;;;;48.50;31.02;;;;;;;;;;5111303;27;20037;-78
2022/03/02 08:12:22;;;;;;;45.75;31.80;;;;;;;;;;5096418;28;20490;-78
2022/03/02 08:14:49;;;;;;;44.38;30.15;;;;;;;;;;5085270;28;20040;-78
2022/03/02 08:17:15;;;;;;;45.40;30.23;;;;;;;;;;5092767;28;20051;-78
2022/03/02 08:19:41;;;;;;;45.33;30.10;;;;;;;;;;5083037;28;20091;-78
2022/03/02 08:22:13;;;;;;;45.65;30.70;;;;;;;;;;5091292;28;20036;-78
2022/03/02 08:24:42;;;;;;;44.80;29.63;;;;;;;;;;5103746;28;20043;-78
2022/03/02 08:27:11;;;;;;;42.40;28.70;;;;;;;;;;5078484;28;20044;-79
2022/03/02 08:29:38;;;;;;;43.10;30.33;;;;;;;;;;5093207;28;20544;-78
2022/03/02 08:32:04;;;;;;;42.88;29.88;;;;;;;;;;5090161;28;20050;-79
2022/03/02 08:34:32;;;;;;;42.78;30.58;;;;;;;;;;5107491;28;20131;-78
2022/03/02 08:36:58;;;;;;;44.10;30.10;;;;;;;;;;5100227;28;20051;-78
2022/03/02 08:39:24;;;;;;;45.80;30.27;;;;;;;;;;5082937;28;20040;-79
2022/03/02 08:41:50;;;;;;;;;;;;;;;;;;5091072;28;20083;-79
2022/03/02 08:44:17;;;;;;;40.65;29.05;;;;;;;;;;5096625;28;19923;-78
2022/03/02 08:46:45;;;;;;;41.83;31.73;;;;;;;;;;5079372;28;20426;-75
2022/03/02 08:49:12;;;;;;;41.72;32.65;;;;;;;;;;5105308;28;20541;-75
2022/03/02 08:51:39;;;;;;;39.75;32.03;;;;;;;;;;5098092;28;20453;-75
2022/03/02 08:54:06;;;;;;;40.30;31.65;;;;;;;;;;5105791;28;20421;-75
2022/03/02 08:56:38;;;;;;;38.30;30.95;;;;;;;;;;5090011;28;20734;-75
2022/03/02 08:59:05;;;;;;;38.45;31.17;;;;;;;;;;5095193;28;20502;-81
2022/03/02 09:01:32;;;;;;;38.92;30.80;;;;;;;;;;5101583;28;20426;-81
2022/03/02 09:03:59;;;;;;;38.05;31.00;;;;;;;;;;5098950;28;20418;-81
2022/03/02 09:06:25;;;;;;;37.33;30.20;;;;;;;;;;5088373;28;20917;-81
2022/03/02 09:08:52;;;;;;;39.72;27.70;;;;;;;;;;5090554;28;20044;-82
2022/03/02 09:11:17;;;;;;;;;;;;;;;;;;5090154;28;20040;-80
2022/03/02 09:13:43;;;;;;;;;;;;;;;;;;5108886;28;20315;-75
2022/03/02 09:16:12;;;;;;;;;;;;;;;;;;5089928;28;19921;-75
2022/03/02 09:18:38;;;;;;;37.72;26.85;;;;;;;;;;5105572;28;19943;-74
2022/03/02 09:21:06;;;;;;;38.28;28.08;;;;;;;;;;5105471;28;20070;-78
2022/03/02 09:23:34;;;;;;;41.33;29.67;;;;;;;;;;5099483;28;20047;-80
2022/03/02 09:26:07;;;;;;;38.20;27.63;;;;;;;;;;5106256;28;20050;-76
2022/03/02 09:28:35;;;;;;;41.70;28.95;;;;;;;;;;5076469;28;20039;-80
2022/03/02 09:31:03;;;;;;;40.75;26.85;;;;;;;;;;5106128;28;20047;-81
2022/03/02 09:33:30;;;;;;;41.70;28.15;;;;;;;;;;5094826;28;20052;-79
2022/03/02 09:35:56;;;;;;;;;;;;;;;;;;5072881;28;20479;-80
2022/03/02 09:38:22;;;;;;;;;;;;;;;;;;5090304;28;19928;-81
2022/03/02 09:40:49;;;;;;;42.00;28.23;;;;;;;;;;5089058;28;19927;-80
2022/03/02 09:43:19;;;;;;;41.03;26.17;;;;;;;;;;5095534;28;20044;-80
2022/03/02 09:45:45;;;;;;;35.72;25.20;;;;;;;;;;5096045;28;20052;-80
2022/03/02 09:48:16;;;;;;;37.97;26.83;;;;;;;;;;5089332;28;20147;-78
2022/03/02 09:50:42;;;;;;;40.08;27.88;;;;;;;;;;5103519;28;20054;-78
2022/03/02 09:53:13;;;;;;;47.78;27.92;;;;;;;;;;5072482;28;20047;-78
2022/03/02 09:55:41;;;;;;;36.08;26.02;;;;;;;;;;5076480;28;20124;-77
2022/03/02 09:58:10;;;;;;;36.10;26.52;;;;;;;;;;5096562;28;20151;-78
2022/03/02 10:00:36;;;;;;;37.42;25.70;;;;;;;;;;5083395;28;20101;-78
2022/03/02 10:03:03;;;;;;;41.35;26.23;;;;;;;;;;5108816;28;20101;-77
2022/03/02 10:05:31;;;;;;;38.60;29.58;;;;;;;;;;5089060;28;20424;-77
2022/03/02 10:08:02;;;;;;;39.83;29.75;;;;;;;;;;5082676;28;20525;-76
2022/03/02 10:10:31;;;;;;;38.20;29.63;;;;;;;;;;5092055;28;20465;-77
2022/03/02 10:12:59;;;;;;;40.40;30.45;;;;;;;;;;5109100;27;20452;-77
2022/03/02 10:15:26;;;;;;;42.35;31.20;;;;;;;;;;5092801;28;20418;-77
2022/03/02 10:17:53;;;;;;;36.55;29.33;;;;;;;;;;5076394;28;20453;-77
2022/03/02 10:20:21;;;;;;;36.22;29.05;;;;;;;;;;5104381;28;20452;-77
2022/03/02 10:22:47;;;;;;;38.30;29.65;;;;;;;;;;5076452;28;20498;-77
2022/03/02 10:25:15;;;;;;;36.72;29.02;;;;;;;;;;5122941;27;20629;-77
2022/03/02 10:27:59;;;;;;;39.13;30.25;;;;;;;;;;5090351;28;20433;-77
2022/03/02 10:30:30;;;;;;;36.33;28.73;;;;;;;;;;5091793;28;20885;-77
2022/03/02 10:33:04;;;;;;;33.85;26.60;;;;;;;;;;5098155;28;20455;-77
2022/03/02 10:35:35;;;;;;;36.65;27.90;;;;;;;;;;5094863;28;20414;-77
2022/03/02 10:38:05;;;;;;;36.78;28.67;;;;;;;;;;5091357;28;20406;-77
2022/03/02 10:40:35;;;;;;;36.83;28.60;;;;;;;;;;5107856;28;20790;-77
2022/03/02 10:43:04;;;;;;;39.58;29.35;;;;;;;;;;5095288;28;20493;-77
2022/03/02 10:45:51;;;;;;;35.42;28.33;;;;;;;;;;5107973;28;20420;-77
2022/03/02 10:48:47;;;;;;;36.78;28.80;;;;;;;;;;5092077;28;20745;-77
2022/03/02 10:51:14;;;;;;;38.08;29.58;;;;;;;;;;5082512;28;20411;-78
2022/03/02 10:53:41;;;;;;;36.38;28.92;;;;;;;;;;5108660;28;20518;-77
2022/03/02 10:56:08;;;;;;;37.33;28.95;;;;;;;;;;5091007;28;20426;-77
2022/03/02 10:58:35;;;;;;;34.93;27.87;;;;;;;;;;5108063;27;20465;-76
2022/03/02 11:01:01;;;;;;;35.67;28.30;;;;;;;;;;5097382;28;20670;-77
2022/03/02 11:03:29;;;;;;;36.17;28.40;;;;;;;;;;5101462;28;20423;-76
2022/03/02 11:06:00;;;;;;;38.17;28.73;;;;;;;;;;5098655;28;20489;-77
2022/03/02 11:08:26;;;;;;;39.38;28.95;;;;;;;;;;5099639;28;20437;-77
2022/03/02 11:10:52;;;;;;;34.38;27.88;;;;;;;;;;5091023;28;20547;-78
2022/03/02 11:13:22;;;;;;;34.60;27.70;;;;;;;;;;5089655;28;20456;-77
2022/03/02 11:15:53;;;;;;;37.10;28.05;;;;;;;;;;5077124;28;20899;-77
2022/03/02 11:18:20;;;;;;;38.20;29.25;;;;;;;;;;5091158;28;20718;-77
2022/03/02 11:20:53;;;;;;;37.05;28.02;;;;;;;;;;5095050;28;20782;-77
2022/03/02 11:23:23;;;;;;;36.05;28.02;;;;;;;;;;5096269;28;20506;-77
2022/03/02 11:25:50;;;;;;;36.03;26.55;;;;;;;;;;5090878;28;20421;-78
2022/03/02 11:28:18;;;;;;;35.05;27.38;;;;;;;;;;5090723;28;20406;-78
2022/03/02 11:30:48;;;;;;;34.67;27.75;;;;;;;;;;5107898;28;20500;-78
2022/03/02 11:33:15;;;;;;;38.35;27.65;;;;;;;;;;5109735;28;20428;-78
2022/03/02 11:35:42;;;;;;;35.28;28.10;;;;;;;;;;5097286;28;20418;-78
2022/03/02 11:38:10;;;;;;;35.57;25.80;;;;;;;;;;5091528;28;20807;-77
2022/03/02 11:40:41;;;;;;;30.45;23.77;;;;;;;;;;5091453;28;20412;-79
2022/03/02 11:43:17;;;;;;;31.95;24.33;;;;;;;;;;5095440;28;20501;-77
2022/03/02 11:45:43;;;;;;;33.15;26.33;;;;;;;;;;5090775;28;20505;-79
2022/03/02 11:48:10;;;;;;;35.30;26.50;;;;;;;;;;5106885;27;20406;-78
2022/03/02 11:50:36;;;;;;;29.67;23.17;;;;;;;;;;5080463;28;20416;-79
2022/03/02 11:53:08;;;;;;;29.15;22.63;;;;;;;;;;5092008;28;20499;-78
2022/03/02 11:55:34;;;;;;;30.15;23.48;;;;;;;;;;5076760;28;20440;-78
2022/03/02 11:58:01;;;;;;;26.90;22.17;;;;;;;;;;5084107;28;20481;-76
2022/03/02 12:00:28;;;;;;;31.67;23.63;;;;;;;;;;5105662;28;20855;-75
2022/03/02 12:02:59;;;;;;;29.38;22.23;;;;;;;;;;5094221;28;20425;-76
2022/03/02 12:05:27;;;;;;;29.77;22.27;;;;;;;;;;5090274;28;20498;-76
2022/03/02 12:08:01;;;;;;;30.88;22.95;;;;;;;;;;5095205;27;20479;-75
2022/03/02 12:10:31;;;;;;;31.90;23.40;;;;;;;;;;5099463;27;20428;-75
2022/03/02 12:12:58;;;;;;;29.43;23.33;;;;;;;;;;5099099;28;20526;-77
2022/03/02 12:15:41;;;;;;;29.58;22.58;;;;;;;;;;5104515;28;20422;-76
2022/03/02 12:18:09;;;;;;;29.35;22.20;;;;;;;;;;5097110;28;20485;-76
2022/03/02 12:20:43;;;;;;;28.05;22.88;;;;;;;;;;5084365;28;20429;-74
2022/03/02 12:23:09;;;;;;;31.08;23.48;;;;;;;;;;5103419;28;20972;-75
2022/03/02 12:25:37;;;;;;;28.03;23.13;;;;;;;;;;5085486;28;20510;-74
2022/03/02 12:28:04;;;;;;;29.58;23.35;;;;;;;;;;5103425;28;20446;-75
2022/03/02 12:30:31;;;;;;;29.08;22.73;;;;;;;;;;5083946;28;20961;-75
2022/03/02 12:32:58;;;;;;;31.27;23.23;;;;;;;;;;5104629;28;20442;-74
2022/03/02 12:35:24;;;;;;;29.65;22.95;;;;;;;;;;5092231;28;20436;-76
2022/03/02 12:37:54;;;;;;;29.98;23.13;;;;;;;;;;5086810;28;20422;-79
2022/03/02 12:40:21;;;;;;;31.90;23.00;;;;;;;;;;5086430;28;20450;-76
2022/03/02 12:42:47;;;;;;;29.20;23.25;;;;;;;;;;5101594;28;20416;-76
2022/03/02 12:45:14;;;;;;;30.07;23.50;;;;;;;;;;5104684;28;20456;-76
2022/03/02 12:47:40;;;;;;;29.90;22.43;;;;;;;;;;5089720;28;20514;-77
2022/03/02 12:50:08;;;;;;;31.23;23.00;;;;;;;;;;5103669;27;20477;-79
2022/03/02 12:52:34;;;;;;;27.20;21.98;;;;;;;;;;5088100;28;20431;-77
2022/03/02 12:55:02;;;;;;;29.60;21.63;;;;;;;;;;5096783;28;20424;-76
2022/03/02 12:57:29;;;;;;;28.17;21.65;;;;;;;;;;5088073;28;20503;-75
2022/03/02 12:59:56;;;;;;;29.65;23.05;;;;;;;;;;5104146;27;20478;-77
2022/03/02 13:02:24;;;;;;;31.10;22.77;;;;;;;;;;5082160;28;20428;-76
2022/03/02 13:04:50;;;;;;;27.83;22.02;;;;;;;;;;5103124;28;20890;-77
2022/03/02 13:07:19;;;;;;;29.45;23.08;;;;;;;;;;5099131;28;20436;-77
2022/03/02 13:09:48;;;;;;;31.35;23.25;;;;;;;;;;5087873;28;20449;-76
2022/03/02 13:12:27;;;;;;;28.42;22.65;;;;;;;;;;5081383;28;20948;-76
2022/03/02 13:14:53;;;;;;;26.75;22.20;;;;;;;;;;5102881;28;20510;-76
2022/03/02 13:17:21;;;;;;;27.35;22.27;;;;;;;;;;5103838;28;20420;-74
2022/03/02 13:19:51;;;;;;;29.33;23.02;;;;;;;;;;5104783;28;20494;-74
2022/03/02 13:22:34;;;;;;;29.65;23.60;;;;;;;;;;5102167;28;20457;-74
2022/03/02 13:25:07;;;;;;;30.85;23.77;;;;;;;;;;5104105;28;20944;-74
2022/03/02 13:27:36;;;;;;;32.17;24.00;;;;;;;;;;5105680;28;20498;-79
2022/03/02 13:30:07;;;;;;;30.08;23.80;;;;;;;;;;5090073;28;20740;-79
2022/03/02 13:32:56;;;;;;;30.63;23.45;;;;;;;;;;5105981;28;20804;-79
2022/03/02 13:35:26;;;;;;;32.35;23.70;;;;;;;;;;5108267;28;20475;-80
2022/03/02 13:37:59;;;;;;;31.15;23.77;;;;;;;;;;5106890;28;20967;-82
2022/03/02 13:40:34;;;;;;;29.38;23.95;;;;;;;;;;5106924;28;20936;-80
2022/03/02 13:43:06;;;;;;;32.07;25.30;;;;;;;;;;5105125;28;20531;-82
2022/03/02 13:45:34;;;;;;;30.20;25.38;;;;;;;;;;5109066;28;20843;-77
2022/03/02 13:48:16;;;;;;;32.25;25.27;;;;;;;;;;5089835;28;20533;-79
2022/03/02 13:50:58;;;;;;;31.30;23.77;;;;;;;;;;5107281;28;20493;-77
2022/03/02 13:53:34;;;;;;;29.48;24.15;;;;;;;;;;5107002;27;20730;-77
2022/03/02 13:56:04;;;;;;;30.35;24.52;;;;;;;;;;5105593;28;20482;-77
2022/03/02 13:58:30;;;;;;;31.13;23.98;;;;;;;;;;5091050;28;20448;-77
2022/03/02 14:01:11;;;;;;;29.15;24.58;;;;;;;;;;5107152;27;20805;-78
2022/03/02 14:03:39;;;;;;;30.20;24.15;;;;;;;;;;5117308;27;20841;-75
2022/03/02 14:06:07;;;;;;;29.70;24.00;;;;;;;;;;5102686;27;20988;-76
2022/03/02 14:08:50;;;;;;;28.60;24.25;;;;;;;;;;5104792;28;20914;-76
2022/03/02 14:11:28;;;;;;;29.17;24.20;;;;;;;;;;5088090;28;21062;-74
2022/03/02 14:13:54;;;;;;;29.50;23.05;;;;;;;;;;5108834;28;20710;-74
2022/03/02 14:16:20;;;;;;;30.15;25.05;;;;;;;;;;5074845;28;20437;-75
2022/03/02 14:18:47;;;;;;;29.23;24.42;;;;;;;;;;5109488;28;20412;-74
2022/03/02 14:21:15;;;;;;;28.75;24.00;;;;;;;;;;5108024;28;20919;-74